Time;durP1;ratioP1;P1;durP2;ratioP2;P2;SDS_P1;SDS_P2;PMS_P1;PMS_P2;Temp;Humidity;BMP_temperature;BMP_pressure;BME280_temperature;BME280_humidity;BME280_pressure;Samples;Min_cycle;Max_cycle;Signal;HPM_P1;HPM_P2
2023/10/22 00:02:02;;;;;;;2.38;1.08;;;;;;;;;;5016450;28;20252;-65
2023/10/22 00:04:27;;;;;;;3.60;1.77;;;;;;;;;;5011241;28;20183;-65
2023/10/22 00:06:52;;;;;;;5.32;1.40;;;;;;;;;;5013035;28;20716;-65
2023/10/22 00:09:17;;;;;;;2.75;1.50;;;;;;;;;;5011242;28;20618;-65
2023/10/22 00:11:43;;;;;;;2.25;1.60;;;;;;;;;;5012305;28;20215;-66
2023/10/22 00:14:08;;;;;;;2.08;1.05;;;;;;;;;;5011822;28;20257;-66
2023/10/22 00:16:33;;;;;;;2.25;1.17;;;;;;;;;;5011889;28;20201;-67
2023/10/22 00:18:58;;;;;;;2.92;1.40;;;;;;;;;;5013941;28;20179;-65
2023/10/22 00:21:23;;;;;;;4.70;1.10;;;;;;;;;;5011816;28;20673;-65
2023/10/22 00:23:49;;;;;;;2.95;1.55;;;;;;;;;;5012813;28;20246;-66
2023/10/22 00:26:14;;;;;;;3.03;1.33;;;;;;;;;;5013015;28;20266;-66
2023/10/22 00:28:39;;;;;;;4.38;1.00;;;;;;;;;;5012574;28;20274;-66
2023/10/22 00:31:04;;;;;;;4.85;1.73;;;;;;;;;;5012506;28;20175;-66
2023/10/22 00:33:29;;;;;;;4.63;1.58;;;;;;;;;;5013651;28;20709;-65
2023/10/22 00:35:55;;;;;;;3.97;1.92;;;;;;;;;;5010741;28;20206;-65
2023/10/22 00:38:21;;;;;;;2.38;1.13;;;;;;;;;;5013762;28;20601;-66
2023/10/22 00:40:46;;;;;;;2.03;1.38;;;;;;;;;;5012401;28;20281;-65
2023/10/22 00:43:11;;;;;;;3.22;1.77;;;;;;;;;;5014096;28;20203;-66
2023/10/22 00:45:37;;;;;;;11.07;2.03;;;;;;;;;;5013184;28;20179;-66
2023/10/22 00:48:02;;;;;;;5.05;1.60;;;;;;;;;;5012626;28;20748;-66
2023/10/22 00:50:28;;;;;;;7.70;1.38;;;;;;;;;;5012716;28;20175;-66
2023/10/22 00:52:53;;;;;;;4.53;1.40;;;;;;;;;;5012965;28;20210;-66
2023/10/22 00:55:18;;;;;;;5.40;1.67;;;;;;;;;;5012203;28;20207;-66
2023/10/22 00:57:43;;;;;;;3.40;1.85;;;;;;;;;;5012333;28;20681;-66
2023/10/22 01:00:09;;;;;;;3.03;1.63;;;;;;;;;;5013200;28;20230;-66
2023/10/22 01:02:35;;;;;;;3.15;1.48;;;;;;;;;;5010223;28;20245;-66
2023/10/22 01:05:00;;;;;;;4.25;1.33;;;;;;;;;;5014285;28;20277;-65
2023/10/22 01:07:25;;;;;;;3.88;1.63;;;;;;;;;;5016792;28;20174;-65
2023/10/22 01:09:50;;;;;;;1.73;1.25;;;;;;;;;;5012796;28;20681;-65
2023/10/22 01:12:16;;;;;;;4.10;1.25;;;;;;;;;;5013731;28;20236;-65
2023/10/22 01:14:41;;;;;;;4.00;2.20;;;;;;;;;;5013349;28;20183;-65
2023/10/22 01:17:06;;;;;;;3.95;1.35;;;;;;;;;;5014349;28;20482;-65
2023/10/22 01:19:32;;;;;;;3.97;1.50;;;;;;;;;;5014358;28;20248;-65
2023/10/22 01:21:57;;;;;;;1.45;0.90;;;;;;;;;;5014073;28;20199;-65
2023/10/22 01:24:22;;;;;;;2.25;1.20;;;;;;;;;;5014303;28;20179;-65
2023/10/22 01:26:47;;;;;;;5.63;1.00;;;;;;;;;;5012503;28;20728;-65
2023/10/22 01:29:13;;;;;;;2.53;1.40;;;;;;;;;;5027898;28;20736;-65
2023/10/22 01:31:39;;;;;;;3.28;1.00;;;;;;;;;;5013288;28;20521;-65
2023/10/22 01:34:04;;;;;;;2.85;1.10;;;;;;;;;;5015209;28;20257;-65
2023/10/22 01:36:29;;;;;;;2.35;1.20;;;;;;;;;;5009695;28;20270;-65
2023/10/22 01:38:54;;;;;;;2.53;1.10;;;;;;;;;;5013528;28;20190;-66
2023/10/22 01:41:20;;;;;;;1.70;1.00;;;;;;;;;;5014294;28;20197;-65
2023/10/22 01:43:45;;;;;;;1.50;0.95;;;;;;;;;;5014012;28;20187;-65
2023/10/22 01:46:10;;;;;;;2.35;1.15;;;;;;;;;;5013625;28;20599;-65
2023/10/22 01:48:37;;;;;;;2.50;1.20;;;;;;;;;;5017161;28;20734;-65
2023/10/22 01:51:02;;;;;;;1.98;1.08;;;;;;;;;;5014627;28;20258;-66
2023/10/22 01:53:28;;;;;;;1.65;0.95;;;;;;;;;;5011845;28;20270;-66
2023/10/22 01:55:53;;;;;;;1.80;1.00;;;;;;;;;;5013628;28;20171;-66
2023/10/22 01:58:18;;;;;;;0.90;0.75;;;;;;;;;;5014014;28;20179;-66
2023/10/22 02:00:43;;;;;;;2.45;0.90;;;;;;;;;;5027088;28;20206;-66
2023/10/22 02:03:09;;;;;;;1.02;0.93;;;;;;;;;;5013349;28;20202;-66
2023/10/22 02:05:34;;;;;;;4.57;1.25;;;;;;;;;;5011689;28;20241;-66
2023/10/22 02:08:00;;;;;;;2.05;1.10;;;;;;;;;;5012211;28;20210;-66
2023/10/22 02:10:25;;;;;;;0.80;0.80;;;;;;;;;;5013420;28;20181;-67
2023/10/22 02:12:50;;;;;;;1.05;0.80;;;;;;;;;;5013585;28;20244;-67
2023/10/22 02:15:16;;;;;;;4.28;1.10;;;;;;;;;;5013528;28;20178;-66
2023/10/22 02:17:41;;;;;;;2.10;0.80;;;;;;;;;;5014185;28;20560;-66
2023/10/22 02:20:08;;;;;;;1.20;0.90;;;;;;;;;;5015100;28;20202;-67
2023/10/22 02:22:33;;;;;;;1.23;1.08;;;;;;;;;;5011925;28;20226;-67
2023/10/22 02:24:59;;;;;;;3.15;1.30;;;;;;;;;;5014222;28;20277;-66
2023/10/22 02:27:24;;;;;;;1.17;1.00;;;;;;;;;;5013802;28;20186;-67
2023/10/22 02:29:49;;;;;;;2.53;1.17;;;;;;;;;;5013258;28;20202;-67
2023/10/22 02:32:14;;;;;;;1.20;0.75;;;;;;;;;;5015873;28;20297;-66
2023/10/22 02:34:40;;;;;;;1.60;0.90;;;;;;;;;;5008704;28;20214;-67
2023/10/22 02:37:05;;;;;;;1.00;0.70;;;;;;;;;;5012352;28;20190;-68
2023/10/22 02:39:31;;;;;;;0.95;0.60;;;;;;;;;;5017521;28;20233;-67
2023/10/22 02:41:56;;;;;;;1.83;0.73;;;;;;;;;;5012273;28;20686;-66
2023/10/22 02:44:21;;;;;;;0.80;0.50;;;;;;;;;;5013692;28;20257;-66
2023/10/22 02:46:46;;;;;;;0.95;0.70;;;;;;;;;;5014699;28;20190;-66
2023/10/22 02:49:12;;;;;;;0.93;0.80;;;;;;;;;;5013371;28;20202;-66
2023/10/22 02:51:37;;;;;;;1.60;0.80;;;;;;;;;;5012940;28;20615;-66
2023/10/22 02:54:03;;;;;;;1.23;0.63;;;;;;;;;;5014964;28;20560;-66
2023/10/22 02:56:28;;;;;;;1.25;0.60;;;;;;;;;;5012478;28;20183;-67
2023/10/22 02:58:53;;;;;;;1.10;0.63;;;;;;;;;;5012356;28;20273;-67
2023/10/22 03:01:18;;;;;;;1.30;0.90;;;;;;;;;;5013592;28;20183;-67
2023/10/22 03:03:44;;;;;;;2.35;0.90;;;;;;;;;;5014640;28;20234;-68
2023/10/22 03:06:10;;;;;;;2.13;1.10;;;;;;;;;;5011244;28;20175;-68
2023/10/22 03:08:36;;;;;;;5.10;1.48;;;;;;;;;;5012255;28;20195;-68
2023/10/22 03:11:01;;;;;;;2.53;1.48;;;;;;;;;;5014506;28;20541;-68
2023/10/22 03:13:27;;;;;;;3.78;1.70;;;;;;;;;;5016014;28;20548;-68
2023/10/22 03:15:52;;;;;;;6.63;3.35;;;;;;;;;;5018545;28;20334;-67
2023/10/22 03:18:17;;;;;;;4.13;2.10;;;;;;;;;;5014449;28;20183;-68
2023/10/22 03:20:42;;;;;;;3.35;2.15;;;;;;;;;;5014039;28;20187;-67
2023/10/22 03:23:08;;;;;;;3.20;2.05;;;;;;;;;;5020981;28;20206;-67
2023/10/22 03:25:34;;;;;;;8.75;2.35;;;;;;;;;;5017715;28;20179;-67
2023/10/22 03:28:00;;;;;;;8.27;2.40;;;;;;;;;;5018348;28;20665;-68
2023/10/22 03:30:25;;;;;;;4.78;2.70;;;;;;;;;;5020254;28;20178;-67
2023/10/22 03:32:51;;;;;;;9.52;3.53;;;;;;;;;;5015813;28;20242;-67
2023/10/22 03:35:16;;;;;;;9.88;3.60;;;;;;;;;;5019685;28;20182;-67
2023/10/22 03:37:41;;;;;;;6.18;3.10;;;;;;;;;;5016829;28;20273;-67
2023/10/22 03:40:07;;;;;;;9.32;3.70;;;;;;;;;;5021821;28;20191;-67
2023/10/22 03:42:33;;;;;;;6.47;3.45;;;;;;;;;;5020566;28;20206;-68
2023/10/22 03:44:59;;;;;;;10.25;3.80;;;;;;;;;;5021410;28;20183;-67
2023/10/22 03:47:25;;;;;;;5.63;3.75;;;;;;;;;;5023601;28;20219;-68
2023/10/22 03:49:50;;;;;;;6.47;3.28;;;;;;;;;;5017912;28;20175;-67
2023/10/22 03:52:15;;;;;;;8.73;3.38;;;;;;;;;;5019588;28;20677;-67
2023/10/22 03:54:40;;;;;;;5.18;2.97;;;;;;;;;;5018434;28;20195;-67
2023/10/22 03:57:05;;;;;;;13.73;2.95;;;;;;;;;;5018874;28;20179;-67
2023/10/22 03:59:31;;;;;;;5.10;3.05;;;;;;;;;;5016649;28;20576;-67
2023/10/22 04:01:56;;;;;;;7.45;2.88;;;;;;;;;;5014281;28;20199;-67
2023/10/22 04:04:21;;;;;;;5.75;2.97;;;;;;;;;;5019550;28;20192;-67
2023/10/22 04:06:46;;;;;;;8.77;2.83;;;;;;;;;;5016859;28;20183;-67
2023/10/22 04:09:12;;;;;;;8.48;2.83;;;;;;;;;;5017883;28;20230;-67
2023/10/22 04:11:37;;;;;;;7.50;3.30;;;;;;;;;;5018288;28;20202;-67
2023/10/22 04:14:02;;;;;;;5.65;2.53;;;;;;;;;;5017648;28;20221;-67
2023/10/22 04:16:27;;;;;;;3.72;2.50;;;;;;;;;;5017327;28;20182;-67
2023/10/22 04:18:52;;;;;;;6.03;2.65;;;;;;;;;;5016743;28;20206;-67
2023/10/22 04:21:18;;;;;;;6.10;2.78;;;;;;;;;;5016335;28;20191;-67
2023/10/22 04:23:43;;;;;;;13.57;3.80;;;;;;;;;;5018256;28;20615;-67
2023/10/22 04:26:12;;;;;;;5.18;3.10;;;;;;;;;;5017689;28;20179;-66
2023/10/22 04:28:37;;;;;;;2.97;2.30;;;;;;;;;;5018626;28;20268;-66
2023/10/22 04:31:02;;;;;;;6.65;2.40;;;;;;;;;;5018135;28;20643;-66
2023/10/22 04:33:28;;;;;;;6.68;3.05;;;;;;;;;;5016273;28;20202;-66
2023/10/22 04:35:53;;;;;;;6.07;3.13;;;;;;;;;;5020738;28;20183;-66
2023/10/22 04:38:18;;;;;;;5.47;3.42;;;;;;;;;;5022525;28;20204;-66
2023/10/22 04:40:43;;;;;;;4.85;3.03;;;;;;;;;;5018427;28;20175;-65
2023/10/22 04:43:09;;;;;;;9.20;3.33;;;;;;;;;;5011108;28;20222;-66
2023/10/22 04:45:34;;;;;;;7.68;3.33;;;;;;;;;;5014505;28;20182;-65
2023/10/22 04:48:00;;;;;;;4.78;3.03;;;;;;;;;;5033797;28;20195;-66
2023/10/22 04:50:25;;;;;;;6.43;3.40;;;;;;;;;;5021482;28;20657;-66
2023/10/22 04:52:51;;;;;;;6.70;3.58;;;;;;;;;;5017711;28;20635;-66
2023/10/22 04:55:16;;;;;;;7.05;3.78;;;;;;;;;;5022421;28;20889;-65
2023/10/22 04:57:42;;;;;;;5.15;4.05;;;;;;;;;;5014326;28;20295;-66
2023/10/22 05:00:08;;;;;;;6.57;3.80;;;;;;;;;;5014568;28;20183;-65
2023/10/22 05:02:33;;;;;;;8.40;4.13;;;;;;;;;;5015415;28;20206;-65
2023/10/22 05:04:58;;;;;;;4.63;3.75;;;;;;;;;;5019829;28;20183;-66
2023/10/22 05:07:23;;;;;;;10.85;3.85;;;;;;;;;;5019105;28;20178;-67
2023/10/22 05:09:49;;;;;;;5.35;3.33;;;;;;;;;;5019665;28;20182;-66
2023/10/22 05:12:14;;;;;;;9.43;3.53;;;;;;;;;;5018868;28;20244;-67
2023/10/22 05:14:39;;;;;;;5.20;3.88;;;;;;;;;;5019226;28;20178;-66
2023/10/22 05:17:05;;;;;;;4.95;3.30;;;;;;;;;;5014815;28;20183;-67
2023/10/22 05:19:30;;;;;;;4.80;2.97;;;;;;;;;;5015660;28;20182;-67
2023/10/22 05:21:56;;;;;;;6.90;4.07;;;;;;;;;;5019679;28;20278;-67
2023/10/22 05:24:21;;;;;;;5.47;3.10;;;;;;;;;;5019850;28;20558;-67
2023/10/22 05:26:46;;;;;;;6.03;3.72;;;;;;;;;;5018550;28;20194;-67
2023/10/22 05:29:11;;;;;;;4.03;2.92;;;;;;;;;;5017527;28;20289;-65
2023/10/22 05:31:37;;;;;;;4.85;3.72;;;;;;;;;;5018472;28;20171;-65
2023/10/22 05:34:02;;;;;;;5.80;3.50;;;;;;;;;;5017680;28;20596;-65
2023/10/22 05:36:27;;;;;;;6.75;3.45;;;;;;;;;;5011619;28;20716;-65
2023/10/22 05:38:53;;;;;;;7.30;4.07;;;;;;;;;;5020125;28;20175;-67
2023/10/22 05:41:22;;;;;;;5.15;3.83;;;;;;;;;;5013771;28;20855;-65
2023/10/22 05:43:50;;;;;;;6.68;4.20;;;;;;;;;;5019993;28;20753;-66
2023/10/22 05:46:16;;;;;;;3.80;3.13;;;;;;;;;;5017759;28;20186;-65
2023/10/22 05:48:41;;;;;;;4.78;3.10;;;;;;;;;;5019033;28;20201;-66
2023/10/22 05:51:06;;;;;;;5.28;2.92;;;;;;;;;;5017488;28;20180;-66
2023/10/22 05:53:31;;;;;;;5.18;2.80;;;;;;;;;;5019718;28;20270;-68
2023/10/22 05:55:57;;;;;;;3.75;2.53;;;;;;;;;;5013203;28;20190;-66
2023/10/22 05:58:23;;;;;;;5.30;2.95;;;;;;;;;;5016563;28;20261;-65
2023/10/22 06:00:49;;;;;;;4.97;3.13;;;;;;;;;;5012212;28;20210;-66
2023/10/22 06:03:14;;;;;;;6.95;3.20;;;;;;;;;;5014346;28;20206;-67
2023/10/22 06:05:39;;;;;;;5.50;3.00;;;;;;;;;;5013490;28;20553;-66
2023/10/22 06:08:05;;;;;;;6.53;3.33;;;;;;;;;;5017049;28;20297;-66
2023/10/22 06:10:30;;;;;;;6.78;3.75;;;;;;;;;;5012027;28;20179;-66
2023/10/22 06:12:55;;;;;;;11.52;4.55;;;;;;;;;;5019681;28;20191;-66
2023/10/22 06:15:20;;;;;;;6.40;4.20;;;;;;;;;;5016167;28;20704;-66
2023/10/22 06:17:45;;;;;;;9.43;5.35;;;;;;;;;;5019805;28;20186;-66
2023/10/22 06:20:11;;;;;;;7.43;5.22;;;;;;;;;;5016026;28;20218;-66
2023/10/22 06:22:36;;;;;;;8.23;5.68;;;;;;;;;;5022457;28;20198;-66
2023/10/22 06:25:02;;;;;;;8.82;5.68;;;;;;;;;;5017322;28;20600;-66
2023/10/22 06:27:27;;;;;;;8.45;6.85;;;;;;;;;;5014064;28;20270;-65
2023/10/22 06:29:53;;;;;;;9.20;6.38;;;;;;;;;;5014220;28;20170;-65
2023/10/22 06:32:19;;;;;;;9.00;5.95;;;;;;;;;;5021462;28;20592;-65
2023/10/22 06:34:44;;;;;;;8.93;6.53;;;;;;;;;;5013756;28;20179;-65
2023/10/22 06:37:09;;;;;;;11.10;6.70;;;;;;;;;;5011988;28;20186;-65
2023/10/22 06:39:34;;;;;;;11.20;6.70;;;;;;;;;;5018692;28;20258;-65
2023/10/22 06:42:01;;;;;;;11.98;6.68;;;;;;;;;;5011259;28;20638;-66
2023/10/22 06:44:26;;;;;;;12.55;6.85;;;;;;;;;;5020852;28;20209;-65
2023/10/22 06:46:51;;;;;;;10.73;6.43;;;;;;;;;;5016526;28;20654;-66
2023/10/22 06:49:16;;;;;;;11.23;6.05;;;;;;;;;;5022947;28;20217;-66
2023/10/22 06:51:42;;;;;;;10.23;6.15;;;;;;;;;;5024525;28;20178;-66
2023/10/22 06:54:07;;;;;;;11.15;6.68;;;;;;;;;;5019092;28;20183;-65
2023/10/22 06:56:32;;;;;;;17.90;6.65;;;;;;;;;;5017020;28;20556;-66
2023/10/22 06:58:57;;;;;;;14.02;6.05;;;;;;;;;;5019108;28;20178;-66
2023/10/22 07:01:22;;;;;;;8.50;5.88;;;;;;;;;;5015423;28;20186;-66
2023/10/22 07:03:48;;;;;;;9.45;4.57;;;;;;;;;;5022861;28;20596;-66
2023/10/22 07:06:13;;;;;;;8.45;5.03;;;;;;;;;;5022602;28;20182;-66
2023/10/22 07:08:39;;;;;;;6.70;5.15;;;;;;;;;;5021664;28;20707;-66
2023/10/22 07:11:04;;;;;;;10.90;4.68;;;;;;;;;;5019091;28;20297;-66
2023/10/22 07:13:29;;;;;;;7.68;4.38;;;;;;;;;;5024895;28;20190;-66
2023/10/22 07:15:55;;;;;;;6.53;4.70;;;;;;;;;;5022901;28;20205;-66
2023/10/22 07:18:21;;;;;;;10.23;4.78;;;;;;;;;;5013674;28;20178;-66
2023/10/22 07:20:46;;;;;;;6.78;3.92;;;;;;;;;;5022924;28;20225;-66
2023/10/22 07:23:12;;;;;;;7.00;4.63;;;;;;;;;;5031047;28;20199;-66
2023/10/22 07:25:37;;;;;;;7.25;5.10;;;;;;;;;;5016283;28;20182;-66
2023/10/22 07:28:03;;;;;;;7.57;4.38;;;;;;;;;;5023300;28;20576;-66
2023/10/22 07:30:29;;;;;;;6.10;4.55;;;;;;;;;;5019342;28;20281;-66
2023/10/22 07:32:55;;;;;;;8.35;4.47;;;;;;;;;;5019530;28;20638;-66
2023/10/22 07:35:20;;;;;;;9.25;4.10;;;;;;;;;;5020086;28;20213;-67
2023/10/22 07:37:46;;;;;;;8.50;4.88;;;;;;;;;;5014089;28;20219;-66
2023/10/22 07:40:13;;;;;;;5.50;3.58;;;;;;;;;;5018147;28;20187;-66
2023/10/22 07:42:38;;;;;;;11.18;4.57;;;;;;;;;;5024923;28;20277;-66
2023/10/22 07:45:04;;;;;;;7.72;3.38;;;;;;;;;;5017924;28;20688;-66
2023/10/22 07:47:29;;;;;;;7.07;3.78;;;;;;;;;;5022247;28;20797;-66
2023/10/22 07:49:54;;;;;;;7.53;3.30;;;;;;;;;;5021879;28;20186;-66
2023/10/22 07:52:19;;;;;;;7.20;3.63;;;;;;;;;;5012266;28;20202;-66
2023/10/22 07:54:47;;;;;;;7.75;3.50;;;;;;;;;;5009955;28;20222;-66
2023/10/22 07:57:12;;;;;;;5.63;3.25;;;;;;;;;;5017404;28;20655;-66
2023/10/22 07:59:37;;;;;;;8.13;3.97;;;;;;;;;;5017497;28;20179;-66
2023/10/22 08:02:03;;;;;;;8.80;3.78;;;;;;;;;;5011088;28;20199;-66
2023/10/22 08:04:28;;;;;;;5.28;2.80;;;;;;;;;;5018631;28;20187;-66
2023/10/22 08:06:53;;;;;;;6.50;3.55;;;;;;;;;;5016289;28;20644;-66
2023/10/22 08:09:19;;;;;;;7.10;3.58;;;;;;;;;;5024659;28;20324;-66
2023/10/22 08:11:44;;;;;;;6.65;3.45;;;;;;;;;;5015351;28;20254;-66
2023/10/22 08:14:09;;;;;;;10.95;3.72;;;;;;;;;;5020622;28;20307;-66
2023/10/22 08:16:34;;;;;;;6.60;3.95;;;;;;;;;;5018494;28;20582;-66
2023/10/22 08:18:59;;;;;;;7.07;3.72;;;;;;;;;;5016092;28;20198;-66
2023/10/22 08:21:25;;;;;;;7.85;3.10;;;;;;;;;;5016179;28;20178;-66
2023/10/22 08:23:50;;;;;;;5.70;3.17;;;;;;;;;;5018846;28;20245;-66
2023/10/22 08:26:15;;;;;;;6.05;3.72;;;;;;;;;;5009817;28;20178;-66
2023/10/22 08:28:41;;;;;;;8.40;3.45;;;;;;;;;;5013223;28;20499;-66
2023/10/22 08:31:06;;;;;;;5.72;3.42;;;;;;;;;;5023504;28;20225;-66
2023/10/22 08:33:31;;;;;;;6.30;3.42;;;;;;;;;;5013480;28;20642;-66
2023/10/22 08:36:03;;;;;;;5.15;3.17;;;;;;;;;;5011998;28;20673;-65
2023/10/22 08:38:28;;;;;;;4.00;2.72;;;;;;;;;;5019994;28;20218;-66
2023/10/22 08:40:53;;;;;;;9.32;2.85;;;;;;;;;;5012668;28;20179;-66
2023/10/22 08:43:19;;;;;;;6.03;2.58;;;;;;;;;;5016150;28;20253;-66
2023/10/22 08:45:46;;;;;;;14.07;3.40;;;;;;;;;;5015645;28;20566;-66
2023/10/22 08:48:11;;;;;;;7.88;2.60;;;;;;;;;;5016769;28;20221;-66
2023/10/22 08:50:37;;;;;;;6.95;2.63;;;;;;;;;;5016885;28;20170;-66
2023/10/22 08:53:02;;;;;;;3.75;2.47;;;;;;;;;;5016849;28;20195;-66
2023/10/22 08:55:28;;;;;;;5.13;2.60;;;;;;;;;;5021218;28;20217;-66
2023/10/22 08:57:54;;;;;;;4.38;2.47;;;;;;;;;;5016434;28;20557;-66
2023/10/22 09:00:20;;;;;;;5.80;2.75;;;;;;;;;;5013584;28;20179;-65
2023/10/22 09:02:45;;;;;;;11.15;2.90;;;;;;;;;;5013448;28;20194;-65
2023/10/22 09:05:11;;;;;;;10.65;2.67;;;;;;;;;;5023452;28;20185;-65
2023/10/22 09:07:50;;;;;;;3.85;2.38;;;;;;;;;;5020966;28;20179;-65
2023/10/22 09:10:30;;;;;;;5.13;2.92;;;;;;;;;;5021726;28;20176;-64
2023/10/22 09:13:08;;;;;;;6.28;2.58;;;;;;;;;;5017612;28;20202;-65
2023/10/22 09:15:36;;;;;;;5.70;2.10;;;;;;;;;;5015404;28;20166;-65
2023/10/22 09:18:02;;;;;;;5.88;2.25;;;;;;;;;;5021833;28;20236;-65
2023/10/22 09:20:29;;;;;;;3.30;2.10;;;;;;;;;;5022887;28;20229;-65
2023/10/22 09:23:10;;;;;;;3.10;2.22;;;;;;;;;;5018964;28;20702;-65
2023/10/22 09:25:35;;;;;;;2.72;2.20;;;;;;;;;;5020272;28;20186;-67
2023/10/22 09:28:13;;;;;;;2.80;1.98;;;;;;;;;;5018501;28;20195;-65
2023/10/22 09:30:40;;;;;;;2.92;2.20;;;;;;;;;;5020806;28;20638;-65
2023/10/22 09:33:05;;;;;;;6.90;2.30;;;;;;;;;;5016439;28;20744;-65
2023/10/22 09:35:31;;;;;;;4.68;1.55;;;;;;;;;;5018412;28;20182;-65
2023/10/22 09:37:58;;;;;;;6.40;2.28;;;;;;;;;;5017583;28;20611;-65
2023/10/22 09:40:23;;;;;;;4.82;2.45;;;;;;;;;;5023678;28;20174;-65
2023/10/22 09:42:50;;;;;;;3.55;1.90;;;;;;;;;;5022340;28;20194;-65
2023/10/22 09:45:16;;;;;;;3.33;1.60;;;;;;;;;;5020982;28;20201;-65
2023/10/22 09:47:44;;;;;;;6.03;1.83;;;;;;;;;;5015592;28;20225;-65
2023/10/22 09:50:12;;;;;;;8.45;1.45;;;;;;;;;;5015611;28;20214;-65
2023/10/22 09:52:41;;;;;;;2.25;1.50;;;;;;;;;;5016305;28;20190;-65
2023/10/22 09:55:10;;;;;;;5.15;1.77;;;;;;;;;;5023311;28;20449;-65
2023/10/22 09:57:36;;;;;;;9.60;2.22;;;;;;;;;;5016973;28;20173;-65
2023/10/22 10:00:12;;;;;;;3.38;1.98;;;;;;;;;;5014697;28;20179;-65
2023/10/22 10:02:38;;;;;;;2.22;1.90;;;;;;;;;;5012542;28;20213;-65
2023/10/22 10:05:03;;;;;;;4.25;2.13;;;;;;;;;;5020315;28;20642;-65
2023/10/22 10:07:30;;;;;;;5.97;2.03;;;;;;;;;;5022974;28;20219;-65
2023/10/22 10:09:55;;;;;;;6.97;1.70;;;;;;;;;;5016246;28;20182;-65
2023/10/22 10:12:21;;;;;;;4.90;1.73;;;;;;;;;;5022807;28;20669;-65
2023/10/22 10:14:47;;;;;;;5.57;1.80;;;;;;;;;;5022577;28;20207;-65
2023/10/22 10:17:13;;;;;;;4.38;1.77;;;;;;;;;;5013325;28;20178;-65
2023/10/22 10:19:39;;;;;;;3.65;1.88;;;;;;;;;;5021379;28;20190;-65
2023/10/22 10:22:04;;;;;;;7.82;2.15;;;;;;;;;;5022418;28;20586;-65
2023/10/22 10:24:30;;;;;;;2.65;1.98;;;;;;;;;;5024445;28;20692;-65
2023/10/22 10:26:59;;;;;;;3.13;1.90;;;;;;;;;;5016191;28;20253;-64
2023/10/22 10:29:25;;;;;;;3.38;2.17;;;;;;;;;;5024977;28;20202;-64
2023/10/22 10:31:51;;;;;;;4.15;2.17;;;;;;;;;;5019477;28;20202;-64
2023/10/22 10:34:31;;;;;;;2.85;1.50;;;;;;;;;;5024932;28;20233;-64
2023/10/22 10:36:57;;;;;;;4.00;1.45;;;;;;;;;;5012564;28;20626;-65
2023/10/22 10:39:43;;;;;;;3.28;1.58;;;;;;;;;;5015571;28;20221;-65
2023/10/22 10:42:09;;;;;;;4.15;1.40;;;;;;;;;;5023281;28;20234;-65
2023/10/22 10:44:53;;;;;;;1.65;1.20;;;;;;;;;;5021034;28;20198;-65
2023/10/22 10:47:21;;;;;;;1.67;1.20;;;;;;;;;;5022782;28;20218;-65
2023/10/22 10:49:59;;;;;;;1.35;0.82;;;;;;;;;;5015294;28;20232;-66
2023/10/22 10:52:28;;;;;;;6.80;1.27;;;;;;;;;;5020548;28;20560;-65
2023/10/22 10:55:01;;;;;;;2.00;0.93;;;;;;;;;;5018905;28;20761;-65
2023/10/22 10:57:36;;;;;;;3.58;0.68;;;;;;;;;;5000570;28;20203;-65
2023/10/22 11:00:01;;;;;;;3.20;1.17;;;;;;;;;;5014663;28;20198;-65
2023/10/22 11:02:26;;;;;;;2.22;0.80;;;;;;;;;;5020584;28;20193;-65
2023/10/22 11:04:51;;;;;;;1.20;0.70;;;;;;;;;;5021158;28;20782;-65
2023/10/22 11:07:18;;;;;;;1.63;0.68;;;;;;;;;;5021318;28;20174;-65
2023/10/22 11:09:43;;;;;;;5.97;1.02;;;;;;;;;;5018867;28;20203;-65
2023/10/22 11:12:09;;;;;;;1.63;0.77;;;;;;;;;;5025792;28;20703;-65
2023/10/22 11:14:35;;;;;;;2.08;1.05;;;;;;;;;;5019559;28;20198;-66
2023/10/22 11:17:00;;;;;;;1.33;0.73;;;;;;;;;;5019228;28;20229;-65
2023/10/22 11:19:26;;;;;;;1.70;0.85;;;;;;;;;;5022937;28;20178;-65
2023/10/22 11:21:54;;;;;;;4.38;1.48;;;;;;;;;;5026587;28;20226;-65
2023/10/22 11:24:20;;;;;;;2.25;0.85;;;;;;;;;;5021382;28;20174;-65
2023/10/22 11:26:47;;;;;;;2.45;1.27;;;;;;;;;;5025246;28;20174;-65
2023/10/22 11:29:12;;;;;;;2.88;0.80;;;;;;;;;;5016947;28;20203;-65
2023/10/22 11:31:37;;;;;;;3.05;1.40;;;;;;;;;;5013282;28;20229;-65
2023/10/22 11:34:12;;;;;;;3.15;1.15;;;;;;;;;;5026315;28;20229;-65
2023/10/22 11:36:38;;;;;;;1.20;0.63;;;;;;;;;;5017404;28;20179;-65
2023/10/22 11:39:13;;;;;;;1.92;0.55;;;;;;;;;;5014037;28;20250;-65
2023/10/22 11:41:39;;;;;;;3.83;0.80;;;;;;;;;;5007418;28;20186;-65
2023/10/22 11:44:05;;;;;;;2.67;0.90;;;;;;;;;;5014384;28;20233;-65
2023/10/22 11:46:42;;;;;;;2.90;0.70;;;;;;;;;;5012916;28;20583;-64
2023/10/22 11:49:08;;;;;;;2.38;0.70;;;;;;;;;;5015053;28;20269;-65
2023/10/22 11:51:43;;;;;;;3.75;0.57;;;;;;;;;;5013392;28;20684;-64
2023/10/22 11:54:08;;;;;;;4.13;0.70;;;;;;;;;;5014436;28;20673;-65
2023/10/22 11:56:33;;;;;;;3.30;0.50;;;;;;;;;;5012245;28;20179;-65
2023/10/22 11:58:58;;;;;;;3.28;0.50;;;;;;;;;;5012180;28;20196;-65
2023/10/22 12:01:23;;;;;;;1.37;0.60;;;;;;;;;;5013022;28;20185;-65
2023/10/22 12:03:48;;;;;;;0.77;0.30;;;;;;;;;;5014383;28;20428;-65
2023/10/22 12:06:14;;;;;;;1.15;0.82;;;;;;;;;;5013415;28;20190;-65
2023/10/22 12:08:39;;;;;;;3.00;0.50;;;;;;;;;;5013823;28;20203;-65
2023/10/22 12:11:04;;;;;;;3.50;0.63;;;;;;;;;;5013738;28;20650;-65
2023/10/22 12:13:29;;;;;;;2.13;0.70;;;;;;;;;;5013993;28;20616;-65
2023/10/22 12:15:54;;;;;;;1.27;0.63;;;;;;;;;;5013510;28;20187;-64
2023/10/22 12:18:20;;;;;;;1.83;0.67;;;;;;;;;;5014896;28;20187;-64
2023/10/22 12:20:45;;;;;;;0.82;0.60;;;;;;;;;;5028435;28;20511;-64
2023/10/22 12:23:11;;;;;;;1.90;0.40;;;;;;;;;;5014589;28;20207;-64
2023/10/22 12:25:36;;;;;;;1.17;0.50;;;;;;;;;;5013273;28;20175;-64
2023/10/22 12:28:01;;;;;;;1.65;0.60;;;;;;;;;;5015034;28;20296;-64
2023/10/22 12:30:27;;;;;;;1.00;0.40;;;;;;;;;;5013417;28;20215;-64
2023/10/22 12:32:52;;;;;;;1.70;0.77;;;;;;;;;;5011888;28;20281;-64
2023/10/22 12:35:17;;;;;;;0.98;0.50;;;;;;;;;;5014223;28;20209;-64
2023/10/22 12:37:42;;;;;;;1.17;0.77;;;;;;;;;;5010842;28;20171;-67
2023/10/22 12:40:09;;;;;;;2.05;0.50;;;;;;;;;;5015176;28;20211;-64
2023/10/22 12:42:36;;;;;;;6.57;0.52;;;;;;;;;;5013084;28;20701;-64
2023/10/22 12:45:02;;;;;;;1.70;0.90;;;;;;;;;;5011708;28;20176;-65
2023/10/22 12:47:27;;;;;;;1.27;0.65;;;;;;;;;;5014239;28;20201;-65
2023/10/22 12:49:52;;;;;;;3.28;0.85;;;;;;;;;;5013952;28;20207;-64
2023/10/22 12:52:17;;;;;;;1.85;0.70;;;;;;;;;;5013614;28;20252;-65
2023/10/22 12:54:44;;;;;;;0.90;0.50;;;;;;;;;;5013722;28;20198;-64
2023/10/22 12:57:10;;;;;;;2.78;0.57;;;;;;;;;;5012493;28;20187;-65
2023/10/22 12:59:36;;;;;;;4.43;0.85;;;;;;;;;;5011017;28;20191;-64
2023/10/22 13:02:01;;;;;;;1.13;0.40;;;;;;;;;;5013323;28;20230;-65
2023/10/22 13:04:26;;;;;;;1.88;0.30;;;;;;;;;;5016103;28;20418;-65
2023/10/22 13:06:51;;;;;;;2.08;0.55;;;;;;;;;;5020278;28;20186;-65
2023/10/22 13:09:17;;;;;;;1.00;0.63;;;;;;;;;;5015323;28;20202;-65
2023/10/22 13:11:42;;;;;;;2.05;0.55;;;;;;;;;;5014277;28;20177;-65
2023/10/22 13:14:07;;;;;;;2.22;0.52;;;;;;;;;;5013894;28;20174;-65
2023/10/22 13:16:33;;;;;;;1.85;0.55;;;;;;;;;;5014315;28;20206;-65
2023/10/22 13:18:58;;;;;;;2.38;0.70;;;;;;;;;;5015048;28;20543;-65
2023/10/22 13:21:23;;;;;;;2.22;0.75;;;;;;;;;;5014436;28;20689;-64
2023/10/22 13:23:48;;;;;;;1.08;0.45;;;;;;;;;;5014451;28;20578;-64
2023/10/22 13:26:14;;;;;;;2.03;0.70;;;;;;;;;;5015343;28;20186;-64
2023/10/22 13:28:39;;;;;;;1.95;0.40;;;;;;;;;;5014875;28;20206;-65
2023/10/22 13:31:04;;;;;;;0.75;0.38;;;;;;;;;;5015610;28;20179;-65
2023/10/22 13:33:29;;;;;;;1.75;0.30;;;;;;;;;;5015968;28;20221;-65
2023/10/22 13:35:55;;;;;;;2.90;0.70;;;;;;;;;;5013442;28;20175;-65
2023/10/22 13:38:21;;;;;;;2.80;0.57;;;;;;;;;;5015106;28;20186;-65
2023/10/22 13:40:46;;;;;;;1.55;0.40;;;;;;;;;;5013189;28;20178;-65
2023/10/22 13:43:12;;;;;;;3.05;0.60;;;;;;;;;;5013787;28;20234;-65
2023/10/22 13:45:37;;;;;;;1.75;0.77;;;;;;;;;;5014411;28;20233;-65
2023/10/22 13:48:03;;;;;;;4.82;0.68;;;;;;;;;;5014023;28;20224;-65
2023/10/22 13:50:28;;;;;;;1.75;0.52;;;;;;;;;;5013910;28;20183;-65
2023/10/22 13:52:53;;;;;;;1.65;0.52;;;;;;;;;;5014973;28;20195;-65
2023/10/22 13:55:18;;;;;;;2.08;0.80;;;;;;;;;;5014826;28;21125;-65
2023/10/22 13:57:44;;;;;;;3.25;0.68;;;;;;;;;;5014772;28;20171;-65
2023/10/22 14:00:09;;;;;;;3.03;0.50;;;;;;;;;;5014903;28;20253;-65
2023/10/22 14:02:36;;;;;;;3.08;1.02;;;;;;;;;;5011196;28;20195;-65
2023/10/22 14:05:01;;;;;;;3.55;0.75;;;;;;;;;;5015015;28;20178;-65
2023/10/22 14:07:26;;;;;;;1.23;0.77;;;;;;;;;;5013759;28;20174;-65
2023/10/22 14:09:51;;;;;;;1.75;0.70;;;;;;;;;;5013613;28;20203;-65
2023/10/22 14:12:17;;;;;;;3.72;0.88;;;;;;;;;;5014544;28;20228;-65
2023/10/22 14:14:43;;;;;;;1.58;0.80;;;;;;;;;;5013607;28;20179;-65
2023/10/22 14:17:08;;;;;;;1.85;0.60;;;;;;;;;;5016106;28;20174;-65
2023/10/22 14:19:33;;;;;;;1.15;0.60;;;;;;;;;;5013783;28;20257;-65
2023/10/22 14:21:59;;;;;;;2.55;0.73;;;;;;;;;;5012228;28;20210;-65
2023/10/22 14:24:24;;;;;;;2.40;0.70;;;;;;;;;;5014589;28;20662;-65
2023/10/22 14:26:49;;;;;;;1.65;0.70;;;;;;;;;;5013687;28;20187;-64
2023/10/22 14:29:15;;;;;;;6.65;0.70;;;;;;;;;;5016367;28;20707;-65
2023/10/22 14:31:40;;;;;;;5.38;0.70;;;;;;;;;;5012771;28;20717;-65
2023/10/22 14:34:05;;;;;;;0.90;0.35;;;;;;;;;;5016031;28;20217;-65
2023/10/22 14:36:30;;;;;;;3.08;0.50;;;;;;;;;;5009797;28;20223;-65